sensor_id;sensor_type;location;lat;lon;timestamp;P1;durP1;ratioP1;P2;durP2;ratioP2
30635;SDS011;17400;52.392;9.750;2023-06-24T00:01:48;8.10;;;6.35;;
30635;SDS011;17400;52.392;9.750;2023-06-24T00:04:16;10.05;;;6.03;;
30635;SDS011;17400;52.392;9.750;2023-06-24T00:06:48;10.93;;;6.57;;
30635;SDS011;17400;52.392;9.750;2023-06-24T00:09:18;11.00;;;6.40;;
30635;SDS011;17400;52.392;9.750;2023-06-24T00:11:46;9.85;;;6.32;;
30635;SDS011;17400;52.392;9.750;2023-06-24T00:14:16;8.77;;;6.72;;
30635;SDS011;17400;52.392;9.750;2023-06-24T00:16:43;12.45;;;6.18;;
30635;SDS011;17400;52.392;9.750;2023-06-24T00:19:18;11.50;;;6.82;;
30635;SDS011;17400;52.392;9.750;2023-06-24T00:21:47;8.18;;;5.20;;
30635;SDS011;17400;52.392;9.750;2023-06-24T00:24:17;12.57;;;6.60;;
30635;SDS011;17400;52.392;9.750;2023-06-24T00:26:46;10.65;;;6.65;;
30635;SDS011;17400;52.392;9.750;2023-06-24T00:29:16;8.30;;;6.05;;
30635;SDS011;17400;52.392;9.750;2023-06-24T00:31:44;10.93;;;6.18;;
30635;SDS011;17400;52.392;9.750;2023-06-24T00:34:12;10.80;;;5.68;;
30635;SDS011;17400;52.392;9.750;2023-06-24T00:36:41;8.35;;;5.97;;
30635;SDS011;17400;52.392;9.750;2023-06-24T00:39:13;7.68;;;5.82;;
30635;SDS011;17400;52.392;9.750;2023-06-24T00:41:41;8.57;;;6.05;;
30635;SDS011;17400;52.392;9.750;2023-06-24T00:44:10;10.02;;;5.93;;
30635;SDS011;17400;52.392;9.750;2023-06-24T00:46:39;11.60;;;5.47;;
30635;SDS011;17400;52.392;9.750;2023-06-24T00:49:07;7.28;;;5.00;;
30635;SDS011;17400;52.392;9.750;2023-06-24T00:51:35;8.30;;;5.65;;
30635;SDS011;17400;52.392;9.750;2023-06-24T00:54:02;9.63;;;5.80;;
30635;SDS011;17400;52.392;9.750;2023-06-24T00:56:31;7.93;;;5.50;;
30635;SDS011;17400;52.392;9.750;2023-06-24T00:59:04;6.85;;;5.40;;
30635;SDS011;17400;52.392;9.750;2023-06-24T01:01:34;7.60;;;4.93;;
30635;SDS011;17400;52.392;9.750;2023-06-24T01:04:04;12.43;;;6.82;;
30635;SDS011;17400;52.392;9.750;2023-06-24T01:06:32;7.65;;;5.40;;
30635;SDS011;17400;52.392;9.750;2023-06-24T01:09:03;7.95;;;5.63;;
30635;SDS011;17400;52.392;9.750;2023-06-24T01:11:31;7.88;;;5.57;;
30635;SDS011;17400;52.392;9.750;2023-06-24T01:14:00;21.13;;;5.90;;
30635;SDS011;17400;52.392;9.750;2023-06-24T01:16:30;11.20;;;4.82;;
30635;SDS011;17400;52.392;9.750;2023-06-24T01:19:09;9.32;;;5.40;;
30635;SDS011;17400;52.392;9.750;2023-06-24T01:21:55;8.98;;;5.63;;
30635;SDS011;17400;52.392;9.750;2023-06-24T01:24:37;5.53;;;4.43;;
30635;SDS011;17400;52.392;9.750;2023-06-24T01:27:29;7.47;;;4.35;;
30635;SDS011;17400;52.392;9.750;2023-06-24T01:30:26;7.75;;;5.00;;
30635;SDS011;17400;52.392;9.750;2023-06-24T01:33:10;5.82;;;4.10;;
30635;SDS011;17400;52.392;9.750;2023-06-24T01:35:42;6.72;;;4.32;;
30635;SDS011;17400;52.392;9.750;2023-06-24T01:38:12;10.45;;;4.72;;
30635;SDS011;17400;52.392;9.750;2023-06-24T01:40:48;10.70;;;4.85;;
30635;SDS011;17400;52.392;9.750;2023-06-24T01:43:19;7.20;;;4.53;;
30635;SDS011;17400;52.392;9.750;2023-06-24T01:45:51;6.63;;;4.88;;
30635;SDS011;17400;52.392;9.750;2023-06-24T01:48:24;8.38;;;5.15;;
30635;SDS011;17400;52.392;9.750;2023-06-24T01:50:56;6.88;;;5.10;;
30635;SDS011;17400;52.392;9.750;2023-06-24T01:53:26;7.75;;;5.63;;
30635;SDS011;17400;52.392;9.750;2023-06-24T01:55:57;8.23;;;5.60;;
30635;SDS011;17400;52.392;9.750;2023-06-24T01:58:27;8.40;;;4.95;;
30635;SDS011;17400;52.392;9.750;2023-06-24T02:01:09;6.78;;;4.72;;
30635;SDS011;17400;52.392;9.750;2023-06-24T02:03:41;7.45;;;4.80;;
30635;SDS011;17400;52.392;9.750;2023-06-24T02:06:10;6.15;;;4.43;;
30635;SDS011;17400;52.392;9.750;2023-06-24T02:08:40;18.15;;;7.45;;
30635;SDS011;17400;52.392;9.750;2023-06-24T02:11:11;6.80;;;5.07;;
30635;SDS011;17400;52.392;9.750;2023-06-24T02:13:40;7.55;;;4.55;;
30635;SDS011;17400;52.392;9.750;2023-06-24T02:16:10;7.90;;;4.93;;
30635;SDS011;17400;52.392;9.750;2023-06-24T02:18:42;7.35;;;5.53;;
30635;SDS011;17400;52.392;9.750;2023-06-24T02:21:11;8.80;;;4.88;;
30635;SDS011;17400;52.392;9.750;2023-06-24T02:23:40;8.38;;;5.25;;
30635;SDS011;17400;52.392;9.750;2023-06-24T02:26:09;7.90;;;4.97;;
30635;SDS011;17400;52.392;9.750;2023-06-24T02:28:39;7.10;;;4.93;;
30635;SDS011;17400;52.392;9.750;2023-06-24T02:31:08;8.88;;;4.78;;
30635;SDS011;17400;52.392;9.750;2023-06-24T02:33:38;9.45;;;4.90;;
30635;SDS011;17400;52.392;9.750;2023-06-24T02:36:07;9.15;;;5.72;;
30635;SDS011;17400;52.392;9.750;2023-06-24T02:38:36;8.60;;;5.35;;
30635;SDS011;17400;52.392;9.750;2023-06-24T02:41:04;8.05;;;5.55;;
30635;SDS011;17400;52.392;9.750;2023-06-24T02:43:32;10.02;;;5.18;;
30635;SDS011;17400;52.392;9.750;2023-06-24T02:46:02;7.40;;;4.93;;
30635;SDS011;17400;52.392;9.750;2023-06-24T02:48:31;8.73;;;5.40;;
30635;SDS011;17400;52.392;9.750;2023-06-24T02:51:04;8.95;;;4.85;;
30635;SDS011;17400;52.392;9.750;2023-06-24T02:53:35;7.72;;;4.53;;
30635;SDS011;17400;52.392;9.750;2023-06-24T02:56:04;6.68;;;4.85;;
30635;SDS011;17400;52.392;9.750;2023-06-24T02:58:34;6.68;;;4.75;;
30635;SDS011;17400;52.392;9.750;2023-06-24T03:01:04;8.15;;;5.13;;
30635;SDS011;17400;52.392;9.750;2023-06-24T03:03:34;7.80;;;4.82;;
30635;SDS011;17400;52.392;9.750;2023-06-24T03:06:03;8.07;;;4.75;;
30635;SDS011;17400;52.392;9.750;2023-06-24T03:08:31;9.30;;;4.90;;
30635;SDS011;17400;52.392;9.750;2023-06-24T03:11:01;7.72;;;5.32;;
30635;SDS011;17400;52.392;9.750;2023-06-24T03:13:28;8.85;;;4.70;;
30635;SDS011;17400;52.392;9.750;2023-06-24T03:15:56;9.80;;;5.57;;
30635;SDS011;17400;52.392;9.750;2023-06-24T03:18:25;9.75;;;6.53;;
30635;SDS011;17400;52.392;9.750;2023-06-24T03:20:53;7.20;;;5.05;;
30635;SDS011;17400;52.392;9.750;2023-06-24T03:23:21;8.25;;;5.15;;
30635;SDS011;17400;52.392;9.750;2023-06-24T03:25:49;7.57;;;5.57;;
30635;SDS011;17400;52.392;9.750;2023-06-24T03:28:18;6.82;;;4.82;;
30635;SDS011;17400;52.392;9.750;2023-06-24T03:30:46;9.57;;;5.20;;
30635;SDS011;17400;52.392;9.750;2023-06-24T03:33:14;9.25;;;5.38;;
30635;SDS011;17400;52.392;9.750;2023-06-24T03:35:43;7.57;;;5.28;;
30635;SDS011;17400;52.392;9.750;2023-06-24T03:38:11;6.78;;;5.32;;
30635;SDS011;17400;52.392;9.750;2023-06-24T03:40:39;8.38;;;5.78;;
30635;SDS011;17400;52.392;9.750;2023-06-24T03:43:07;7.43;;;5.07;;
30635;SDS011;17400;52.392;9.750;2023-06-24T03:45:36;8.43;;;5.50;;
30635;SDS011;17400;52.392;9.750;2023-06-24T03:48:05;10.32;;;5.30;;
30635;SDS011;17400;52.392;9.750;2023-06-24T03:50:33;11.50;;;5.95;;
30635;SDS011;17400;52.392;9.750;2023-06-24T03:53:01;8.18;;;5.18;;
30635;SDS011;17400;52.392;9.750;2023-06-24T03:55:30;9.98;;;5.45;;
30635;SDS011;17400;52.392;9.750;2023-06-24T03:57:58;10.07;;;5.22;;
30635;SDS011;17400;52.392;9.750;2023-06-24T04:00:26;8.38;;;5.38;;
30635;SDS011;17400;52.392;9.750;2023-06-24T04:02:55;9.38;;;5.30;;
30635;SDS011;17400;52.392;9.750;2023-06-24T04:05:26;7.90;;;5.70;;
30635;SDS011;17400;52.392;9.750;2023-06-24T04:07:55;9.07;;;4.72;;
30635;SDS011;17400;52.392;9.750;2023-06-24T04:10:23;9.38;;;5.40;;
30635;SDS011;17400;52.392;9.750;2023-06-24T04:12:51;13.23;;;5.55;;
30635;SDS011;17400;52.392;9.750;2023-06-24T04:15:19;9.13;;;5.53;;
30635;SDS011;17400;52.392;9.750;2023-06-24T04:17:46;10.30;;;5.72;;
30635;SDS011;17400;52.392;9.750;2023-06-24T04:20:16;8.77;;;4.60;;
30635;SDS011;17400;52.392;9.750;2023-06-24T04:22:44;11.02;;;7.07;;
30635;SDS011;17400;52.392;9.750;2023-06-24T04:25:11;8.20;;;5.30;;
30635;SDS011;17400;52.392;9.750;2023-06-24T04:27:39;8.57;;;5.50;;
30635;SDS011;17400;52.392;9.750;2023-06-24T04:30:07;11.35;;;5.47;;
30635;SDS011;17400;52.392;9.750;2023-06-24T04:32:36;8.63;;;5.68;;
30635;SDS011;17400;52.392;9.750;2023-06-24T04:35:04;8.50;;;5.20;;
30635;SDS011;17400;52.392;9.750;2023-06-24T04:37:33;12.02;;;5.75;;
30635;SDS011;17400;52.392;9.750;2023-06-24T04:40:01;7.28;;;5.50;;
30635;SDS011;17400;52.392;9.750;2023-06-24T04:42:29;8.73;;;5.28;;
30635;SDS011;17400;52.392;9.750;2023-06-24T04:44:57;9.13;;;5.43;;
30635;SDS011;17400;52.392;9.750;2023-06-24T04:47:25;7.93;;;5.60;;
30635;SDS011;17400;52.392;9.750;2023-06-24T04:49:53;7.43;;;5.22;;
30635;SDS011;17400;52.392;9.750;2023-06-24T04:52:22;9.85;;;5.18;;
30635;SDS011;17400;52.392;9.750;2023-06-24T04:54:52;6.90;;;4.70;;
30635;SDS011;17400;52.392;9.750;2023-06-24T04:57:24;8.77;;;5.25;;
30635;SDS011;17400;52.392;9.750;2023-06-24T04:59:53;9.73;;;5.75;;
30635;SDS011;17400;52.392;9.750;2023-06-24T05:02:21;8.68;;;5.10;;
30635;SDS011;17400;52.392;9.750;2023-06-24T05:04:49;8.20;;;6.05;;
30635;SDS011;17400;52.392;9.750;2023-06-24T05:07:18;8.10;;;5.53;;
30635;SDS011;17400;52.392;9.750;2023-06-24T05:09:47;7.85;;;5.85;;
30635;SDS011;17400;52.392;9.750;2023-06-24T05:12:18;9.57;;;5.55;;
30635;SDS011;17400;52.392;9.750;2023-06-24T05:14:49;9.45;;;5.68;;
30635;SDS011;17400;52.392;9.750;2023-06-24T05:17:17;8.40;;;5.20;;
30635;SDS011;17400;52.392;9.750;2023-06-24T05:19:45;7.38;;;5.18;;
30635;SDS011;17400;52.392;9.750;2023-06-24T05:22:14;10.07;;;5.45;;
30635;SDS011;17400;52.392;9.750;2023-06-24T05:24:41;11.15;;;5.93;;
30635;SDS011;17400;52.392;9.750;2023-06-24T05:27:10;9.82;;;6.40;;
30635;SDS011;17400;52.392;9.750;2023-06-24T05:29:39;9.50;;;5.68;;
30635;SDS011;17400;52.392;9.750;2023-06-24T05:32:07;10.80;;;6.25;;
30635;SDS011;17400;52.392;9.750;2023-06-24T05:34:35;11.88;;;8.25;;
30635;SDS011;17400;52.392;9.750;2023-06-24T05:37:03;11.60;;;6.70;;
30635;SDS011;17400;52.392;9.750;2023-06-24T05:39:31;9.23;;;6.68;;
30635;SDS011;17400;52.392;9.750;2023-06-24T05:41:59;8.25;;;5.90;;
30635;SDS011;17400;52.392;9.750;2023-06-24T05:44:29;11.85;;;6.28;;
30635;SDS011;17400;52.392;9.750;2023-06-24T05:46:58;9.85;;;5.93;;
30635;SDS011;17400;52.392;9.750;2023-06-24T05:49:25;8.73;;;5.82;;
30635;SDS011;17400;52.392;9.750;2023-06-24T05:51:53;8.63;;;5.63;;
30635;SDS011;17400;52.392;9.750;2023-06-24T05:54:21;8.40;;;5.88;;
30635;SDS011;17400;52.392;9.750;2023-06-24T05:56:49;11.27;;;6.63;;
30635;SDS011;17400;52.392;9.750;2023-06-24T05:59:17;7.47;;;5.55;;
30635;SDS011;17400;52.392;9.750;2023-06-24T06:01:45;11.07;;;6.75;;
30635;SDS011;17400;52.392;9.750;2023-06-24T06:04:14;10.27;;;7.10;;
30635;SDS011;17400;52.392;9.750;2023-06-24T06:06:42;10.65;;;7.25;;
30635;SDS011;17400;52.392;9.750;2023-06-24T06:09:10;15.80;;;7.07;;
30635;SDS011;17400;52.392;9.750;2023-06-24T06:11:38;12.75;;;7.07;;
30635;SDS011;17400;52.392;9.750;2023-06-24T06:14:06;10.43;;;6.10;;
30635;SDS011;17400;52.392;9.750;2023-06-24T06:16:34;12.30;;;6.13;;
30635;SDS011;17400;52.392;9.750;2023-06-24T06:19:01;10.60;;;6.65;;
30635;SDS011;17400;52.392;9.750;2023-06-24T06:21:31;9.77;;;6.20;;
30635;SDS011;17400;52.392;9.750;2023-06-24T06:23:59;8.40;;;5.80;;
30635;SDS011;17400;52.392;9.750;2023-06-24T06:26:27;10.63;;;6.38;;
30635;SDS011;17400;52.392;9.750;2023-06-24T06:28:55;8.05;;;5.45;;
30635;SDS011;17400;52.392;9.750;2023-06-24T06:31:23;9.23;;;5.55;;
30635;SDS011;17400;52.392;9.750;2023-06-24T06:33:52;8.90;;;4.78;;
30635;SDS011;17400;52.392;9.750;2023-06-24T06:36:20;8.00;;;5.32;;
30635;SDS011;17400;52.392;9.750;2023-06-24T06:38:49;10.50;;;5.15;;
30635;SDS011;17400;52.392;9.750;2023-06-24T06:41:17;6.60;;;4.80;;
30635;SDS011;17400;52.392;9.750;2023-06-24T06:43:51;12.13;;;5.60;;
30635;SDS011;17400;52.392;9.750;2023-06-24T06:46:19;8.63;;;5.30;;
30635;SDS011;17400;52.392;9.750;2023-06-24T06:48:47;6.43;;;4.93;;
30635;SDS011;17400;52.392;9.750;2023-06-24T06:51:15;11.82;;;4.97;;
30635;SDS011;17400;52.392;9.750;2023-06-24T06:53:45;5.85;;;4.45;;
30635;SDS011;17400;52.392;9.750;2023-06-24T06:56:17;7.32;;;4.82;;
30635;SDS011;17400;52.392;9.750;2023-06-24T06:58:45;7.50;;;5.65;;
30635;SDS011;17400;52.392;9.750;2023-06-24T07:01:13;8.40;;;5.13;;
30635;SDS011;17400;52.392;9.750;2023-06-24T07:03:41;7.25;;;5.13;;
30635;SDS011;17400;52.392;9.750;2023-06-24T07:06:09;7.85;;;4.40;;
30635;SDS011;17400;52.392;9.750;2023-06-24T07:08:37;12.50;;;4.82;;
30635;SDS011;17400;52.392;9.750;2023-06-24T07:11:05;6.55;;;4.53;;
30635;SDS011;17400;52.392;9.750;2023-06-24T07:13:34;8.75;;;5.57;;
30635;SDS011;17400;52.392;9.750;2023-06-24T07:16:06;6.05;;;4.05;;
30635;SDS011;17400;52.392;9.750;2023-06-24T07:18:36;7.15;;;4.93;;
30635;SDS011;17400;52.392;9.750;2023-06-24T07:21:04;6.28;;;4.45;;
30635;SDS011;17400;52.392;9.750;2023-06-24T07:23:32;6.78;;;5.10;;
30635;SDS011;17400;52.392;9.750;2023-06-24T07:26:00;9.38;;;5.00;;
30635;SDS011;17400;52.392;9.750;2023-06-24T07:28:30;6.00;;;4.15;;
30635;SDS011;17400;52.392;9.750;2023-06-24T07:30:59;5.53;;;3.72;;
30635;SDS011;17400;52.392;9.750;2023-06-24T07:33:27;6.43;;;4.18;;
30635;SDS011;17400;52.392;9.750;2023-06-24T07:35:57;6.75;;;4.47;;
30635;SDS011;17400;52.392;9.750;2023-06-24T07:38:25;4.25;;;3.00;;
30635;SDS011;17400;52.392;9.750;2023-06-24T07:40:52;5.47;;;3.72;;
30635;SDS011;17400;52.392;9.750;2023-06-24T07:43:20;5.80;;;3.13;;
30635;SDS011;17400;52.392;9.750;2023-06-24T07:45:48;4.70;;;3.63;;
30635;SDS011;17400;52.392;9.750;2023-06-24T07:48:17;5.60;;;3.53;;
30635;SDS011;17400;52.392;9.750;2023-06-24T07:50:45;6.18;;;4.28;;
30635;SDS011;17400;52.392;9.750;2023-06-24T07:53:13;4.85;;;3.60;;
30635;SDS011;17400;52.392;9.750;2023-06-24T07:55:41;4.28;;;3.00;;
30635;SDS011;17400;52.392;9.750;2023-06-24T07:58:09;4.75;;;3.38;;
30635;SDS011;17400;52.392;9.750;2023-06-24T08:00:37;3.75;;;2.88;;
30635;SDS011;17400;52.392;9.750;2023-06-24T08:03:05;4.97;;;3.33;;
30635;SDS011;17400;52.392;9.750;2023-06-24T08:05:34;5.35;;;3.22;;
30635;SDS011;17400;52.392;9.750;2023-06-24T08:08:03;5.28;;;2.67;;
30635;SDS011;17400;52.392;9.750;2023-06-24T08:10:31;4.72;;;3.33;;
30635;SDS011;17400;52.392;9.750;2023-06-24T08:12:59;4.35;;;3.05;;
30635;SDS011;17400;52.392;9.750;2023-06-24T08:15:27;5.97;;;3.22;;
30635;SDS011;17400;52.392;9.750;2023-06-24T08:17:55;5.85;;;3.25;;
30635;SDS011;17400;52.392;9.750;2023-06-24T08:20:23;4.30;;;3.33;;
30635;SDS011;17400;52.392;9.750;2023-06-24T08:22:52;6.82;;;3.13;;
30635;SDS011;17400;52.392;9.750;2023-06-24T08:25:20;5.25;;;3.80;;
30635;SDS011;17400;52.392;9.750;2023-06-24T08:27:49;6.03;;;3.63;;
30635;SDS011;17400;52.392;9.750;2023-06-24T08:30:17;4.85;;;2.90;;
30635;SDS011;17400;52.392;9.750;2023-06-24T08:32:45;4.93;;;3.05;;
30635;SDS011;17400;52.392;9.750;2023-06-24T08:35:13;3.85;;;3.03;;
30635;SDS011;17400;52.392;9.750;2023-06-24T08:37:41;5.82;;;3.65;;
30635;SDS011;17400;52.392;9.750;2023-06-24T08:40:11;6.80;;;3.50;;
30635;SDS011;17400;52.392;9.750;2023-06-24T08:42:39;5.43;;;3.20;;
30635;SDS011;17400;52.392;9.750;2023-06-24T08:45:07;5.72;;;3.92;;
30635;SDS011;17400;52.392;9.750;2023-06-24T08:47:36;7.07;;;3.50;;
30635;SDS011;17400;52.392;9.750;2023-06-24T08:50:04;7.50;;;3.60;;
30635;SDS011;17400;52.392;9.750;2023-06-24T08:52:36;5.50;;;3.50;;
30635;SDS011;17400;52.392;9.750;2023-06-24T08:55:06;5.70;;;4.78;;
30635;SDS011;17400;52.392;9.750;2023-06-24T08:57:39;5.97;;;4.07;;
30635;SDS011;17400;52.392;9.750;2023-06-24T09:00:07;6.43;;;3.67;;
30635;SDS011;17400;52.392;9.750;2023-06-24T09:02:37;4.57;;;3.35;;
30635;SDS011;17400;52.392;9.750;2023-06-24T09:05:06;6.78;;;4.38;;
30635;SDS011;17400;52.392;9.750;2023-06-24T09:07:36;6.40;;;4.28;;
30635;SDS011;17400;52.392;9.750;2023-06-24T09:10:04;5.20;;;3.00;;
30635;SDS011;17400;52.392;9.750;2023-06-24T09:12:33;5.82;;;3.30;;
30635;SDS011;17400;52.392;9.750;2023-06-24T09:15:04;6.00;;;3.92;;
30635;SDS011;17400;52.392;9.750;2023-06-24T09:17:32;5.22;;;3.53;;
30635;SDS011;17400;52.392;9.750;2023-06-24T09:20:04;5.97;;;3.42;;
30635;SDS011;17400;52.392;9.750;2023-06-24T09:22:38;4.78;;;3.58;;
30635;SDS011;17400;52.392;9.750;2023-06-24T09:25:09;6.38;;;4.13;;
30635;SDS011;17400;52.392;9.750;2023-06-24T09:27:37;5.00;;;3.63;;
30635;SDS011;17400;52.392;9.750;2023-06-24T09:30:17;5.05;;;3.35;;
30635;SDS011;17400;52.392;9.750;2023-06-24T09:32:46;7.07;;;3.53;;
30635;SDS011;17400;52.392;9.750;2023-06-24T09:35:16;5.18;;;3.22;;
30635;SDS011;17400;52.392;9.750;2023-06-24T09:37:49;4.50;;;3.42;;
30635;SDS011;17400;52.392;9.750;2023-06-24T09:40:18;4.28;;;3.42;;
30635;SDS011;17400;52.392;9.750;2023-06-24T09:42:53;4.88;;;3.63;;
30635;SDS011;17400;52.392;9.750;2023-06-24T09:45:24;3.70;;;2.55;;
30635;SDS011;17400;52.392;9.750;2023-06-24T09:47:52;6.13;;;3.17;;
30635;SDS011;17400;52.392;9.750;2023-06-24T09:50:21;5.15;;;3.35;;
30635;SDS011;17400;52.392;9.750;2023-06-24T09:52:50;6.00;;;3.67;;
30635;SDS011;17400;52.392;9.750;2023-06-24T09:55:18;5.65;;;3.80;;
30635;SDS011;17400;52.392;9.750;2023-06-24T09:57:50;5.68;;;3.72;;
30635;SDS011;17400;52.392;9.750;2023-06-24T10:00:20;4.00;;;2.65;;
30635;SDS011;17400;52.392;9.750;2023-06-24T10:02:51;4.60;;;3.67;;
30635;SDS011;17400;52.392;9.750;2023-06-24T10:05:25;4.40;;;3.25;;
30635;SDS011;17400;52.392;9.750;2023-06-24T10:07:53;6.13;;;3.47;;
30635;SDS011;17400;52.392;9.750;2023-06-24T10:10:21;5.28;;;3.10;;
30635;SDS011;17400;52.392;9.750;2023-06-24T10:12:50;5.50;;;2.97;;
30635;SDS011;17400;52.392;9.750;2023-06-24T10:15:18;4.53;;;3.20;;
30635;SDS011;17400;52.392;9.750;2023-06-24T10:17:46;4.25;;;2.72;;
30635;SDS011;17400;52.392;9.750;2023-06-24T10:20:15;8.10;;;4.82;;
30635;SDS011;17400;52.392;9.750;2023-06-24T10:22:52;4.88;;;3.38;;
30635;SDS011;17400;52.392;9.750;2023-06-24T10:25:20;5.15;;;3.17;;
30635;SDS011;17400;52.392;9.750;2023-06-24T10:27:50;5.22;;;3.38;;
30635;SDS011;17400;52.392;9.750;2023-06-24T10:30:21;4.75;;;2.92;;
30635;SDS011;17400;52.392;9.750;2023-06-24T10:32:54;4.13;;;2.65;;
30635;SDS011;17400;52.392;9.750;2023-06-24T10:35:25;3.92;;;2.90;;
30635;SDS011;17400;52.392;9.750;2023-06-24T10:37:57;4.75;;;2.72;;
30635;SDS011;17400;52.392;9.750;2023-06-24T10:40:36;6.47;;;3.30;;
30635;SDS011;17400;52.392;9.750;2023-06-24T10:45:54;6.93;;;3.67;;
30635;SDS011;17400;52.392;9.750;2023-06-24T10:48:24;4.05;;;2.80;;
30635;SDS011;17400;52.392;9.750;2023-06-24T10:50:53;4.07;;;2.97;;
30635;SDS011;17400;52.392;9.750;2023-06-24T10:53:21;6.55;;;3.45;;
30635;SDS011;17400;52.392;9.750;2023-06-24T10:55:49;6.20;;;3.88;;
30635;SDS011;17400;52.392;9.750;2023-06-24T10:58:17;7.85;;;3.22;;
30635;SDS011;17400;52.392;9.750;2023-06-24T11:00:45;5.43;;;3.05;;
30635;SDS011;17400;52.392;9.750;2023-06-24T11:03:14;3.83;;;2.90;;
30635;SDS011;17400;52.392;9.750;2023-06-24T11:05:43;6.55;;;3.08;;
30635;SDS011;17400;52.392;9.750;2023-06-24T11:08:14;4.53;;;3.40;;
30635;SDS011;17400;52.392;9.750;2023-06-24T11:10:42;4.93;;;2.83;;
30635;SDS011;17400;52.392;9.750;2023-06-24T11:13:11;4.93;;;3.20;;
30635;SDS011;17400;52.392;9.750;2023-06-24T11:15:40;7.65;;;3.83;;
30635;SDS011;17400;52.392;9.750;2023-06-24T11:18:09;4.00;;;2.55;;
30635;SDS011;17400;52.392;9.750;2023-06-24T11:20:38;4.28;;;2.95;;
30635;SDS011;17400;52.392;9.750;2023-06-24T11:23:06;4.38;;;3.22;;
30635;SDS011;17400;52.392;9.750;2023-06-24T11:25:41;4.20;;;2.67;;
30635;SDS011;17400;52.392;9.750;2023-06-24T11:28:14;6.13;;;3.15;;
30635;SDS011;17400;52.392;9.750;2023-06-24T11:30:48;4.32;;;3.50;;
30635;SDS011;17400;52.392;9.750;2023-06-24T11:33:25;5.32;;;2.72;;
30635;SDS011;17400;52.392;9.750;2023-06-24T11:35:54;4.43;;;2.92;;
30635;SDS011;17400;52.392;9.750;2023-06-24T11:38:22;5.95;;;3.55;;
30635;SDS011;17400;52.392;9.750;2023-06-24T11:40:52;4.53;;;2.92;;
30635;SDS011;17400;52.392;9.750;2023-06-24T11:43:20;5.28;;;2.97;;
30635;SDS011;17400;52.392;9.750;2023-06-24T11:45:48;5.75;;;2.97;;
30635;SDS011;17400;52.392;9.750;2023-06-24T11:48:16;5.07;;;2.80;;
30635;SDS011;17400;52.392;9.750;2023-06-24T11:50:43;4.90;;;3.00;;
30635;SDS011;17400;52.392;9.750;2023-06-24T11:53:11;14.77;;;4.68;;
30635;SDS011;17400;52.392;9.750;2023-06-24T11:55:42;4.93;;;3.25;;
30635;SDS011;17400;52.392;9.750;2023-06-24T11:58:18;6.10;;;3.70;;
30635;SDS011;17400;52.392;9.750;2023-06-24T12:00:48;7.35;;;3.50;;
30635;SDS011;17400;52.392;9.750;2023-06-24T12:03:22;5.18;;;3.55;;
30635;SDS011;17400;52.392;9.750;2023-06-24T12:05:51;4.18;;;2.80;;
30635;SDS011;17400;52.392;9.750;2023-06-24T12:08:19;5.55;;;3.50;;
30635;SDS011;17400;52.392;9.750;2023-06-24T12:10:49;5.03;;;3.47;;
30635;SDS011;17400;52.392;9.750;2023-06-24T12:13:18;5.78;;;3.55;;
30635;SDS011;17400;52.392;9.750;2023-06-24T12:15:46;5.93;;;3.58;;
30635;SDS011;17400;52.392;9.750;2023-06-24T12:18:14;5.07;;;3.10;;
30635;SDS011;17400;52.392;9.750;2023-06-24T12:20:44;4.95;;;3.70;;
30635;SDS011;17400;52.392;9.750;2023-06-24T12:23:12;4.45;;;3.47;;
30635;SDS011;17400;52.392;9.750;2023-06-24T12:25:40;6.85;;;3.47;;
30635;SDS011;17400;52.392;9.750;2023-06-24T12:28:09;4.75;;;3.40;;
30635;SDS011;17400;52.392;9.750;2023-06-24T12:30:42;5.63;;;3.92;;
30635;SDS011;17400;52.392;9.750;2023-06-24T12:33:10;6.43;;;4.10;;
30635;SDS011;17400;52.392;9.750;2023-06-24T12:35:42;6.53;;;3.83;;
30635;SDS011;17400;52.392;9.750;2023-06-24T12:38:10;6.70;;;3.80;;
30635;SDS011;17400;52.392;9.750;2023-06-24T12:40:38;4.65;;;3.60;;
30635;SDS011;17400;52.392;9.750;2023-06-24T12:43:07;6.70;;;4.00;;
30635;SDS011;17400;52.392;9.750;2023-06-24T12:45:35;8.52;;;4.90;;
30635;SDS011;17400;52.392;9.750;2023-06-24T12:48:05;7.47;;;3.90;;
30635;SDS011;17400;52.392;9.750;2023-06-24T12:50:33;5.32;;;4.05;;
30635;SDS011;17400;52.392;9.750;2023-06-24T12:53:01;8.95;;;5.18;;
30635;SDS011;17400;52.392;9.750;2023-06-24T12:55:30;4.68;;;3.55;;
30635;SDS011;17400;52.392;9.750;2023-06-24T12:57:58;6.18;;;4.13;;
30635;SDS011;17400;52.392;9.750;2023-06-24T13:00:26;5.20;;;4.07;;
30635;SDS011;17400;52.392;9.750;2023-06-24T13:02:54;5.22;;;4.13;;
30635;SDS011;17400;52.392;9.750;2023-06-24T13:05:23;5.65;;;3.85;;
30635;SDS011;17400;52.392;9.750;2023-06-24T13:07:51;7.13;;;4.82;;
30635;SDS011;17400;52.392;9.750;2023-06-24T13:10:20;5.30;;;3.70;;
30635;SDS011;17400;52.392;9.750;2023-06-24T13:12:48;5.25;;;3.90;;
30635;SDS011;17400;52.392;9.750;2023-06-24T13:15:18;6.15;;;5.18;;
30635;SDS011;17400;52.392;9.750;2023-06-24T13:17:46;5.57;;;4.63;;
30635;SDS011;17400;52.392;9.750;2023-06-24T13:20:14;6.80;;;4.68;;
30635;SDS011;17400;52.392;9.750;2023-06-24T13:22:44;8.82;;;4.70;;
30635;SDS011;17400;52.392;9.750;2023-06-24T13:25:12;6.07;;;5.10;;
30635;SDS011;17400;52.392;9.750;2023-06-24T13:27:42;7.20;;;5.97;;
30635;SDS011;17400;52.392;9.750;2023-06-24T13:30:12;5.25;;;4.50;;
30635;SDS011;17400;52.392;9.750;2023-06-24T13:32:42;7.18;;;5.30;;
30635;SDS011;17400;52.392;9.750;2023-06-24T13:35:10;6.53;;;4.70;;
30635;SDS011;17400;52.392;9.750;2023-06-24T13:37:38;7.53;;;5.10;;
30635;SDS011;17400;52.392;9.750;2023-06-24T13:40:08;6.68;;;4.18;;
30635;SDS011;17400;52.392;9.750;2023-06-24T13:42:36;9.63;;;7.60;;
30635;SDS011;17400;52.392;9.750;2023-06-24T13:45:05;9.30;;;6.00;;
30635;SDS011;17400;52.392;9.750;2023-06-24T13:47:34;6.97;;;4.72;;
30635;SDS011;17400;52.392;9.750;2023-06-24T13:50:02;4.75;;;3.42;;
30635;SDS011;17400;52.392;9.750;2023-06-24T13:52:34;5.30;;;3.45;;
30635;SDS011;17400;52.392;9.750;2023-06-24T13:55:04;5.65;;;3.33;;
30635;SDS011;17400;52.392;9.750;2023-06-24T13:57:34;6.88;;;3.30;;
30635;SDS011;17400;52.392;9.750;2023-06-24T14:00:05;3.88;;;3.40;;
30635;SDS011;17400;52.392;9.750;2023-06-24T14:02:39;6.40;;;4.85;;
30635;SDS011;17400;52.392;9.750;2023-06-24T14:05:08;7.53;;;4.20;;
30635;SDS011;17400;52.392;9.750;2023-06-24T14:07:37;4.78;;;3.70;;
30635;SDS011;17400;52.392;9.750;2023-06-24T14:10:06;5.18;;;4.38;;
30635;SDS011;17400;52.392;9.750;2023-06-24T14:12:37;6.57;;;3.50;;
30635;SDS011;17400;52.392;9.750;2023-06-24T14:15:09;5.85;;;4.35;;
30635;SDS011;17400;52.392;9.750;2023-06-24T14:17:40;5.93;;;4.05;;
30635;SDS011;17400;52.392;9.750;2023-06-24T14:20:10;5.10;;;3.47;;
30635;SDS011;17400;52.392;9.750;2023-06-24T14:22:39;7.90;;;4.82;;
30635;SDS011;17400;52.392;9.750;2023-06-24T14:25:07;5.75;;;4.38;;
30635;SDS011;17400;52.392;9.750;2023-06-24T14:27:35;5.60;;;4.13;;
30635;SDS011;17400;52.392;9.750;2023-06-24T14:30:05;7.82;;;4.38;;
30635;SDS011;17400;52.392;9.750;2023-06-24T14:32:34;5.25;;;4.20;;
30635;SDS011;17400;52.392;9.750;2023-06-24T14:35:02;6.15;;;4.18;;
30635;SDS011;17400;52.392;9.750;2023-06-24T14:37:31;5.32;;;3.97;;
30635;SDS011;17400;52.392;9.750;2023-06-24T14:39:58;6.35;;;4.25;;
30635;SDS011;17400;52.392;9.750;2023-06-24T14:42:27;5.53;;;3.90;;
30635;SDS011;17400;52.392;9.750;2023-06-24T14:44:56;5.63;;;4.22;;
30635;SDS011;17400;52.392;9.750;2023-06-24T14:47:25;5.05;;;4.20;;
30635;SDS011;17400;52.392;9.750;2023-06-24T14:49:53;5.13;;;4.15;;
30635;SDS011;17400;52.392;9.750;2023-06-24T14:52:21;4.88;;;3.58;;
30635;SDS011;17400;52.392;9.750;2023-06-24T14:54:49;4.50;;;3.80;;
30635;SDS011;17400;52.392;9.750;2023-06-24T14:57:17;7.20;;;4.28;;
30635;SDS011;17400;52.392;9.750;2023-06-24T14:59:45;6.05;;;4.28;;
30635;SDS011;17400;52.392;9.750;2023-06-24T15:02:13;6.60;;;4.32;;